Terminal Aerodrome Forecast
Issued by NWS King Salmon, AK

Home | Current Version | Previous Version | Text Only | Print | Product List | Glossary On
Versions: 1 2 3 4 5 6 7 8 9 10 11 12 13 14 15 16 17 18 19 20 21 22 23 24 25 26 27 28 29 30 31
000
FTAK31 PANC 270537
TAFAKN
TAF
PAKN 270537Z 2706/2806 18016G29KT P6SM VCSH SCT080 BKN200
     FM271200 15008KT P6SM SCT045 BKN080
     FM272000 16012KT P6SM SCT080 BKN200
     FM280300 18010KT P6SM SCT060 BKN080=

USA.gov is the U.S. government's official web portal to all federal, state and local government web resources and services.